sensor_id;sensor_type;location;lat;lon;timestamp;P1;durP1;ratioP1;P2;durP2;ratioP2
19043;SDS011;9654;52.302;8.120;2023-07-24T00:01:47;3.80;;;3.50;;
19043;SDS011;9654;52.302;8.120;2023-07-24T00:04:14;3.70;;;3.40;;
19043;SDS011;9654;52.302;8.120;2023-07-24T00:06:41;3.70;;;3.40;;
19043;SDS011;9654;52.302;8.120;2023-07-24T00:09:09;3.97;;;3.10;;
19043;SDS011;9654;52.302;8.120;2023-07-24T00:11:36;5.30;;;3.30;;
19043;SDS011;9654;52.302;8.120;2023-07-24T00:14:03;4.10;;;3.20;;
19043;SDS011;9654;52.302;8.120;2023-07-24T00:16:30;3.57;;;3.20;;
19043;SDS011;9654;52.302;8.120;2023-07-24T00:18:56;3.40;;;3.10;;
19043;SDS011;9654;52.302;8.120;2023-07-24T00:21:23;3.80;;;3.27;;
19043;SDS011;9654;52.302;8.120;2023-07-24T00:23:50;3.80;;;3.50;;
19043;SDS011;9654;52.302;8.120;2023-07-24T00:26:18;4.27;;;3.87;;
19043;SDS011;9654;52.302;8.120;2023-07-24T00:28:45;4.60;;;4.27;;
19043;SDS011;9654;52.302;8.120;2023-07-24T00:31:11;4.33;;;3.97;;
19043;SDS011;9654;52.302;8.120;2023-07-24T00:33:38;4.97;;;3.97;;
19043;SDS011;9654;52.302;8.120;2023-07-24T00:36:05;4.80;;;3.80;;
19043;SDS011;9654;52.302;8.120;2023-07-24T00:38:32;5.50;;;4.90;;
19043;SDS011;9654;52.302;8.120;2023-07-24T00:40:58;5.33;;;4.37;;
19043;SDS011;9654;52.302;8.120;2023-07-24T00:43:26;4.13;;;3.80;;
19043;SDS011;9654;52.302;8.120;2023-07-24T00:45:53;4.93;;;4.30;;
19043;SDS011;9654;52.302;8.120;2023-07-24T00:48:21;5.13;;;4.17;;
19043;SDS011;9654;52.302;8.120;2023-07-24T00:50:48;4.60;;;4.10;;
19043;SDS011;9654;52.302;8.120;2023-07-24T00:53:16;4.50;;;4.10;;
19043;SDS011;9654;52.302;8.120;2023-07-24T00:55:44;6.37;;;4.77;;
19043;SDS011;9654;52.302;8.120;2023-07-24T00:58:11;5.03;;;4.57;;
19043;SDS011;9654;52.302;8.120;2023-07-24T01:00:40;4.63;;;4.23;;
19043;SDS011;9654;52.302;8.120;2023-07-24T01:03:07;5.37;;;4.70;;
19043;SDS011;9654;52.302;8.120;2023-07-24T01:05:33;5.80;;;5.20;;
19043;SDS011;9654;52.302;8.120;2023-07-24T01:08:00;8.87;;;5.97;;
19043;SDS011;9654;52.302;8.120;2023-07-24T01:10:27;6.90;;;6.10;;
19043;SDS011;9654;52.302;8.120;2023-07-24T01:12:56;8.13;;;6.83;;
19043;SDS011;9654;52.302;8.120;2023-07-24T01:15:29;7.33;;;6.63;;
19043;SDS011;9654;52.302;8.120;2023-07-24T01:18:00;10.23;;;6.40;;
19043;SDS011;9654;52.302;8.120;2023-07-24T01:20:30;7.60;;;6.87;;
19043;SDS011;9654;52.302;8.120;2023-07-24T01:23:04;8.87;;;7.73;;
19043;SDS011;9654;52.302;8.120;2023-07-24T01:25:49;8.83;;;7.93;;
19043;SDS011;9654;52.302;8.120;2023-07-24T01:28:19;8.77;;;7.97;;
19043;SDS011;9654;52.302;8.120;2023-07-24T01:30:46;10.13;;;8.03;;
19043;SDS011;9654;52.302;8.120;2023-07-24T01:33:13;8.43;;;7.30;;
19043;SDS011;9654;52.302;8.120;2023-07-24T01:35:40;7.47;;;6.77;;
19043;SDS011;9654;52.302;8.120;2023-07-24T01:38:09;8.93;;;7.93;;
19043;SDS011;9654;52.302;8.120;2023-07-24T01:40:38;9.07;;;8.10;;
19043;SDS011;9654;52.302;8.120;2023-07-24T01:43:07;8.23;;;7.43;;
19043;SDS011;9654;52.302;8.120;2023-07-24T01:45:34;8.13;;;7.43;;
19043;SDS011;9654;52.302;8.120;2023-07-24T01:48:03;8.40;;;7.50;;
19043;SDS011;9654;52.302;8.120;2023-07-24T01:50:31;8.67;;;7.80;;
19043;SDS011;9654;52.302;8.120;2023-07-24T01:52:58;8.50;;;7.70;;
19043;SDS011;9654;52.302;8.120;2023-07-24T01:55:24;9.40;;;7.53;;
19043;SDS011;9654;52.302;8.120;2023-07-24T01:57:51;9.47;;;7.93;;
19043;SDS011;9654;52.302;8.120;2023-07-24T02:00:19;9.03;;;8.03;;
19043;SDS011;9654;52.302;8.120;2023-07-24T02:02:46;8.50;;;7.50;;
19043;SDS011;9654;52.302;8.120;2023-07-24T02:05:13;8.30;;;7.33;;
19043;SDS011;9654;52.302;8.120;2023-07-24T02:07:39;8.30;;;7.20;;
19043;SDS011;9654;52.302;8.120;2023-07-24T02:10:07;7.90;;;7.10;;
19043;SDS011;9654;52.302;8.120;2023-07-24T02:12:34;8.90;;;7.27;;
19043;SDS011;9654;52.302;8.120;2023-07-24T02:15:01;9.10;;;8.17;;
19043;SDS011;9654;52.302;8.120;2023-07-24T02:17:29;9.17;;;7.87;;
19043;SDS011;9654;52.302;8.120;2023-07-24T02:19:56;11.27;;;8.53;;
19043;SDS011;9654;52.302;8.120;2023-07-24T02:22:23;10.33;;;8.27;;
19043;SDS011;9654;52.302;8.120;2023-07-24T02:24:50;12.00;;;8.53;;
19043;SDS011;9654;52.302;8.120;2023-07-24T02:27:24;9.80;;;8.80;;
19043;SDS011;9654;52.302;8.120;2023-07-24T02:29:52;11.07;;;9.67;;
19043;SDS011;9654;52.302;8.120;2023-07-24T02:32:19;13.00;;;8.40;;
19043;SDS011;9654;52.302;8.120;2023-07-24T02:34:48;10.90;;;9.07;;
19043;SDS011;9654;52.302;8.120;2023-07-24T02:37:15;10.27;;;8.23;;
19043;SDS011;9654;52.302;8.120;2023-07-24T02:39:42;9.47;;;7.53;;
19043;SDS011;9654;52.302;8.120;2023-07-24T02:42:09;8.47;;;7.37;;
19043;SDS011;9654;52.302;8.120;2023-07-24T02:44:36;10.80;;;8.40;;
19043;SDS011;9654;52.302;8.120;2023-07-24T02:47:03;11.23;;;8.90;;
19043;SDS011;9654;52.302;8.120;2023-07-24T02:49:30;11.40;;;8.77;;
19043;SDS011;9654;52.302;8.120;2023-07-24T02:51:58;16.60;;;10.10;;
19043;SDS011;9654;52.302;8.120;2023-07-24T02:54:25;11.97;;;9.83;;
19043;SDS011;9654;52.302;8.120;2023-07-24T02:56:52;11.47;;;10.27;;
19043;SDS011;9654;52.302;8.120;2023-07-24T02:59:19;16.77;;;10.60;;
19043;SDS011;9654;52.302;8.120;2023-07-24T03:01:45;11.53;;;10.33;;
19043;SDS011;9654;52.302;8.120;2023-07-24T03:04:12;17.10;;;11.37;;
19043;SDS011;9654;52.302;8.120;2023-07-24T03:06:39;13.67;;;12.13;;
19043;SDS011;9654;52.302;8.120;2023-07-24T03:09:07;13.53;;;10.40;;
19043;SDS011;9654;52.302;8.120;2023-07-24T03:11:34;13.23;;;11.33;;
19043;SDS011;9654;52.302;8.120;2023-07-24T03:14:01;16.13;;;11.43;;
19043;SDS011;9654;52.302;8.120;2023-07-24T03:16:28;11.83;;;9.97;;
19043;SDS011;9654;52.302;8.120;2023-07-24T03:18:54;12.23;;;10.33;;
19043;SDS011;9654;52.302;8.120;2023-07-24T03:21:21;12.27;;;10.87;;
19043;SDS011;9654;52.302;8.120;2023-07-24T03:23:48;13.73;;;11.03;;
19043;SDS011;9654;52.302;8.120;2023-07-24T03:26:16;13.27;;;11.17;;
19043;SDS011;9654;52.302;8.120;2023-07-24T03:28:43;12.00;;;10.27;;
19043;SDS011;9654;52.302;8.120;2023-07-24T03:31:09;12.53;;;8.87;;
19043;SDS011;9654;52.302;8.120;2023-07-24T03:33:36;12.77;;;8.63;;
19043;SDS011;9654;52.302;8.120;2023-07-24T03:36:03;11.07;;;8.77;;
19043;SDS011;9654;52.302;8.120;2023-07-24T03:38:30;19.50;;;8.00;;
19043;SDS011;9654;52.302;8.120;2023-07-24T03:40:57;14.07;;;8.20;;
19043;SDS011;9654;52.302;8.120;2023-07-24T03:43:25;12.73;;;7.73;;
19043;SDS011;9654;52.302;8.120;2023-07-24T03:45:52;8.27;;;7.47;;
19043;SDS011;9654;52.302;8.120;2023-07-24T03:48:19;12.77;;;7.40;;
19043;SDS011;9654;52.302;8.120;2023-07-24T03:50:45;8.63;;;6.70;;
19043;SDS011;9654;52.302;8.120;2023-07-24T03:53:12;12.50;;;7.00;;
19043;SDS011;9654;52.302;8.120;2023-07-24T03:55:39;7.33;;;6.53;;
19043;SDS011;9654;52.302;8.120;2023-07-24T03:58:05;6.37;;;5.77;;
19043;SDS011;9654;52.302;8.120;2023-07-24T04:00:34;7.87;;;5.53;;
19043;SDS011;9654;52.302;8.120;2023-07-24T04:03:00;6.57;;;5.23;;
19043;SDS011;9654;52.302;8.120;2023-07-24T04:05:27;9.47;;;5.33;;
19043;SDS011;9654;52.302;8.120;2023-07-24T04:07:54;6.53;;;5.10;;
19043;SDS011;9654;52.302;8.120;2023-07-24T04:10:21;7.20;;;5.17;;
19043;SDS011;9654;52.302;8.120;2023-07-24T04:12:48;8.80;;;5.30;;
19043;SDS011;9654;52.302;8.120;2023-07-24T04:15:15;10.23;;;5.10;;
19043;SDS011;9654;52.302;8.120;2023-07-24T04:17:43;9.30;;;4.80;;
19043;SDS011;9654;52.302;8.120;2023-07-24T04:20:10;8.60;;;5.20;;
19043;SDS011;9654;52.302;8.120;2023-07-24T04:22:37;8.20;;;4.87;;
19043;SDS011;9654;52.302;8.120;2023-07-24T04:25:04;7.40;;;4.93;;
19043;SDS011;9654;52.302;8.120;2023-07-24T04:27:31;7.27;;;4.77;;
19043;SDS011;9654;52.302;8.120;2023-07-24T04:29:58;7.20;;;4.27;;
19043;SDS011;9654;52.302;8.120;2023-07-24T04:32:25;7.50;;;5.47;;
19043;SDS011;9654;52.302;8.120;2023-07-24T04:34:53;12.03;;;6.30;;
19043;SDS011;9654;52.302;8.120;2023-07-24T04:37:20;10.87;;;7.07;;
19043;SDS011;9654;52.302;8.120;2023-07-24T04:39:47;8.33;;;6.97;;
19043;SDS011;9654;52.302;8.120;2023-07-24T04:42:14;10.77;;;6.23;;
19043;SDS011;9654;52.302;8.120;2023-07-24T04:44:40;9.77;;;6.60;;
19043;SDS011;9654;52.302;8.120;2023-07-24T04:47:07;9.70;;;7.33;;
19043;SDS011;9654;52.302;8.120;2023-07-24T04:49:34;10.10;;;6.90;;
19043;SDS011;9654;52.302;8.120;2023-07-24T04:52:02;11.30;;;6.97;;
19043;SDS011;9654;52.302;8.120;2023-07-24T04:54:30;11.00;;;7.07;;
19043;SDS011;9654;52.302;8.120;2023-07-24T04:56:56;9.07;;;5.80;;
19043;SDS011;9654;52.302;8.120;2023-07-24T04:59:23;9.13;;;6.23;;
19043;SDS011;9654;52.302;8.120;2023-07-24T05:01:50;7.50;;;6.30;;
19043;SDS011;9654;52.302;8.120;2023-07-24T05:04:17;12.63;;;5.57;;
19043;SDS011;9654;52.302;8.120;2023-07-24T05:06:43;12.77;;;6.03;;
19043;SDS011;9654;52.302;8.120;2023-07-24T05:09:11;8.07;;;5.83;;
19043;SDS011;9654;52.302;8.120;2023-07-24T05:11:39;7.83;;;4.90;;
19043;SDS011;9654;52.302;8.120;2023-07-24T05:14:07;11.20;;;5.70;;
19043;SDS011;9654;52.302;8.120;2023-07-24T05:16:33;13.27;;;5.87;;
19043;SDS011;9654;52.302;8.120;2023-07-24T05:19:00;7.67;;;5.10;;
19043;SDS011;9654;52.302;8.120;2023-07-24T05:21:27;9.77;;;5.93;;
19043;SDS011;9654;52.302;8.120;2023-07-24T05:23:54;10.97;;;5.47;;
19043;SDS011;9654;52.302;8.120;2023-07-24T05:26:22;9.27;;;5.67;;
19043;SDS011;9654;52.302;8.120;2023-07-24T05:28:49;8.00;;;5.33;;
19043;SDS011;9654;52.302;8.120;2023-07-24T05:31:17;10.03;;;6.37;;
19043;SDS011;9654;52.302;8.120;2023-07-24T05:33:44;8.10;;;5.47;;
19043;SDS011;9654;52.302;8.120;2023-07-24T05:36:11;9.37;;;5.40;;
19043;SDS011;9654;52.302;8.120;2023-07-24T05:38:37;8.10;;;5.23;;
19043;SDS011;9654;52.302;8.120;2023-07-24T05:41:04;7.67;;;5.37;;
19043;SDS011;9654;52.302;8.120;2023-07-24T05:43:32;7.33;;;5.30;;
19043;SDS011;9654;52.302;8.120;2023-07-24T05:45:59;10.43;;;6.00;;
19043;SDS011;9654;52.302;8.120;2023-07-24T05:48:26;6.17;;;5.33;;
19043;SDS011;9654;52.302;8.120;2023-07-24T05:50:53;9.10;;;5.37;;
19043;SDS011;9654;52.302;8.120;2023-07-24T05:53:19;8.13;;;5.03;;
19043;SDS011;9654;52.302;8.120;2023-07-24T05:55:46;6.73;;;4.63;;
19043;SDS011;9654;52.302;8.120;2023-07-24T05:58:14;4.93;;;4.23;;
19043;SDS011;9654;52.302;8.120;2023-07-24T06:00:42;7.17;;;3.93;;
19043;SDS011;9654;52.302;8.120;2023-07-24T06:03:09;5.53;;;4.17;;
19043;SDS011;9654;52.302;8.120;2023-07-24T06:05:35;9.07;;;4.43;;
19043;SDS011;9654;52.302;8.120;2023-07-24T06:08:02;7.30;;;4.77;;
19043;SDS011;9654;52.302;8.120;2023-07-24T06:10:29;4.73;;;4.20;;
19043;SDS011;9654;52.302;8.120;2023-07-24T06:12:56;6.87;;;4.93;;
19043;SDS011;9654;52.302;8.120;2023-07-24T06:15:23;4.93;;;4.53;;
19043;SDS011;9654;52.302;8.120;2023-07-24T06:17:51;4.57;;;4.13;;
19043;SDS011;9654;52.302;8.120;2023-07-24T06:20:17;5.87;;;5.17;;
19043;SDS011;9654;52.302;8.120;2023-07-24T06:22:44;6.37;;;4.60;;
19043;SDS011;9654;52.302;8.120;2023-07-24T06:25:11;4.37;;;4.03;;
19043;SDS011;9654;52.302;8.120;2023-07-24T06:27:38;5.87;;;3.87;;
19043;SDS011;9654;52.302;8.120;2023-07-24T06:30:05;4.33;;;3.77;;
19043;SDS011;9654;52.302;8.120;2023-07-24T06:32:32;4.93;;;3.90;;
19043;SDS011;9654;52.302;8.120;2023-07-24T06:35:01;3.80;;;3.50;;
19043;SDS011;9654;52.302;8.120;2023-07-24T06:37:27;6.00;;;3.63;;
19043;SDS011;9654;52.302;8.120;2023-07-24T06:39:54;4.60;;;3.37;;
19043;SDS011;9654;52.302;8.120;2023-07-24T06:42:21;5.43;;;3.20;;
19043;SDS011;9654;52.302;8.120;2023-07-24T06:44:48;4.50;;;2.73;;
19043;SDS011;9654;52.302;8.120;2023-07-24T06:47:14;4.93;;;3.50;;
19043;SDS011;9654;52.302;8.120;2023-07-24T06:49:41;4.33;;;3.03;;
19043;SDS011;9654;52.302;8.120;2023-07-24T06:52:09;3.67;;;3.37;;
19043;SDS011;9654;52.302;8.120;2023-07-24T06:54:36;3.83;;;3.37;;
19043;SDS011;9654;52.302;8.120;2023-07-24T06:57:03;5.13;;;3.00;;
19043;SDS011;9654;52.302;8.120;2023-07-24T06:59:30;3.87;;;3.37;;
19043;SDS011;9654;52.302;8.120;2023-07-24T07:01:56;4.33;;;3.93;;
19043;SDS011;9654;52.302;8.120;2023-07-24T07:04:23;6.27;;;4.37;;
19043;SDS011;9654;52.302;8.120;2023-07-24T07:06:50;5.27;;;4.30;;
19043;SDS011;9654;52.302;8.120;2023-07-24T07:09:18;5.97;;;4.50;;
19043;SDS011;9654;52.302;8.120;2023-07-24T07:11:45;5.37;;;4.87;;
19043;SDS011;9654;52.302;8.120;2023-07-24T07:14:11;5.63;;;5.13;;
19043;SDS011;9654;52.302;8.120;2023-07-24T07:16:38;6.27;;;4.57;;
19043;SDS011;9654;52.302;8.120;2023-07-24T07:19:06;6.80;;;6.00;;
19043;SDS011;9654;52.302;8.120;2023-07-24T07:21:34;7.73;;;6.47;;
19043;SDS011;9654;52.302;8.120;2023-07-24T07:24:01;8.70;;;5.97;;
19043;SDS011;9654;52.302;8.120;2023-07-24T07:26:29;7.63;;;5.90;;
19043;SDS011;9654;52.302;8.120;2023-07-24T07:28:56;6.87;;;6.20;;
19043;SDS011;9654;52.302;8.120;2023-07-24T07:31:22;7.90;;;6.30;;
19043;SDS011;9654;52.302;8.120;2023-07-24T07:33:49;6.83;;;6.10;;
19043;SDS011;9654;52.302;8.120;2023-07-24T07:36:16;10.53;;;6.63;;
19043;SDS011;9654;52.302;8.120;2023-07-24T07:38:43;5.97;;;5.37;;
19043;SDS011;9654;52.302;8.120;2023-07-24T07:41:09;6.17;;;5.60;;
19043;SDS011;9654;52.302;8.120;2023-07-24T07:43:37;6.37;;;5.73;;
19043;SDS011;9654;52.302;8.120;2023-07-24T07:46:04;6.30;;;5.70;;
19043;SDS011;9654;52.302;8.120;2023-07-24T07:48:31;5.47;;;5.03;;
19043;SDS011;9654;52.302;8.120;2023-07-24T07:50:58;6.83;;;5.40;;
19043;SDS011;9654;52.302;8.120;2023-07-24T07:53:25;7.93;;;5.80;;
19043;SDS011;9654;52.302;8.120;2023-07-24T07:55:55;6.73;;;5.60;;
19043;SDS011;9654;52.302;8.120;2023-07-24T07:58:22;5.70;;;4.97;;
19043;SDS011;9654;52.302;8.120;2023-07-24T08:00:50;4.60;;;4.30;;
19043;SDS011;9654;52.302;8.120;2023-07-24T08:03:17;5.40;;;4.23;;
19043;SDS011;9654;52.302;8.120;2023-07-24T08:05:43;3.87;;;3.47;;
19043;SDS011;9654;52.302;8.120;2023-07-24T08:08:10;3.40;;;3.20;;
19043;SDS011;9654;52.302;8.120;2023-07-24T08:10:37;4.80;;;3.70;;
19043;SDS011;9654;52.302;8.120;2023-07-24T08:13:04;3.40;;;3.20;;
19043;SDS011;9654;52.302;8.120;2023-07-24T08:15:33;3.73;;;2.93;;
19043;SDS011;9654;52.302;8.120;2023-07-24T08:18:02;10.20;;;3.43;;
19043;SDS011;9654;52.302;8.120;2023-07-24T08:20:30;4.43;;;2.90;;
19043;SDS011;9654;52.302;8.120;2023-07-24T08:22:56;4.40;;;2.27;;
19043;SDS011;9654;52.302;8.120;2023-07-24T08:25:23;2.63;;;2.30;;
19043;SDS011;9654;52.302;8.120;2023-07-24T08:27:50;2.60;;;2.20;;
19043;SDS011;9654;52.302;8.120;2023-07-24T08:30:17;2.63;;;2.13;;
19043;SDS011;9654;52.302;8.120;2023-07-24T08:32:44;2.20;;;2.00;;
19043;SDS011;9654;52.302;8.120;2023-07-24T08:35:12;1.33;;;1.23;;
19043;SDS011;9654;52.302;8.120;2023-07-24T08:37:42;2.70;;;1.50;;
19043;SDS011;9654;52.302;8.120;2023-07-24T08:40:09;1.40;;;1.30;;
19043;SDS011;9654;52.302;8.120;2023-07-24T08:42:37;1.30;;;1.20;;
19043;SDS011;9654;52.302;8.120;2023-07-24T08:45:06;1.30;;;1.20;;
19043;SDS011;9654;52.302;8.120;2023-07-24T08:47:37;1.50;;;1.40;;
19043;SDS011;9654;52.302;8.120;2023-07-24T08:50:06;1.20;;;1.10;;
19043;SDS011;9654;52.302;8.120;2023-07-24T08:52:37;1.97;;;1.40;;
19043;SDS011;9654;52.302;8.120;2023-07-24T08:55:04;1.30;;;1.30;;
19043;SDS011;9654;52.302;8.120;2023-07-24T08:57:32;1.60;;;1.50;;
19043;SDS011;9654;52.302;8.120;2023-07-24T08:59:59;1.60;;;1.50;;
19043;SDS011;9654;52.302;8.120;2023-07-24T09:02:29;1.40;;;1.30;;
19043;SDS011;9654;52.302;8.120;2023-07-24T09:04:56;1.70;;;1.43;;
19043;SDS011;9654;52.302;8.120;2023-07-24T09:07:23;2.03;;;1.70;;
19043;SDS011;9654;52.302;8.120;2023-07-24T09:09:51;1.63;;;1.50;;
19043;SDS011;9654;52.302;8.120;2023-07-24T09:12:18;1.67;;;1.57;;
19043;SDS011;9654;52.302;8.120;2023-07-24T09:14:45;1.83;;;1.73;;
19043;SDS011;9654;52.302;8.120;2023-07-24T09:17:12;2.80;;;1.70;;
19043;SDS011;9654;52.302;8.120;2023-07-24T09:19:38;1.80;;;1.70;;
19043;SDS011;9654;52.302;8.120;2023-07-24T09:22:09;1.90;;;1.77;;
19043;SDS011;9654;52.302;8.120;2023-07-24T09:24:37;3.43;;;2.43;;
19043;SDS011;9654;52.302;8.120;2023-07-24T09:27:16;2.77;;;2.20;;
19043;SDS011;9654;52.302;8.120;2023-07-24T09:29:43;3.43;;;2.07;;
19043;SDS011;9654;52.302;8.120;2023-07-24T09:32:18;2.13;;;1.93;;
19043;SDS011;9654;52.302;8.120;2023-07-24T09:34:45;2.20;;;2.00;;
19043;SDS011;9654;52.302;8.120;2023-07-24T09:37:22;2.50;;;2.30;;
19043;SDS011;9654;52.302;8.120;2023-07-24T09:39:49;2.47;;;2.27;;
19043;SDS011;9654;52.302;8.120;2023-07-24T09:42:17;4.40;;;2.47;;
19043;SDS011;9654;52.302;8.120;2023-07-24T09:44:44;2.33;;;2.23;;
19043;SDS011;9654;52.302;8.120;2023-07-24T09:47:11;4.03;;;2.40;;
19043;SDS011;9654;52.302;8.120;2023-07-24T09:49:38;3.10;;;2.40;;
19043;SDS011;9654;52.302;8.120;2023-07-24T09:52:06;3.43;;;2.90;;
19043;SDS011;9654;52.302;8.120;2023-07-24T09:54:36;3.53;;;2.67;;
19043;SDS011;9654;52.302;8.120;2023-07-24T09:57:10;2.70;;;2.50;;
19043;SDS011;9654;52.302;8.120;2023-07-24T09:59:40;6.20;;;2.50;;
19043;SDS011;9654;52.302;8.120;2023-07-24T10:02:08;4.00;;;2.77;;
19043;SDS011;9654;52.302;8.120;2023-07-24T10:04:38;4.10;;;3.17;;
19043;SDS011;9654;52.302;8.120;2023-07-24T10:07:06;5.50;;;3.33;;
19043;SDS011;9654;52.302;8.120;2023-07-24T10:09:33;3.73;;;3.37;;
19043;SDS011;9654;52.302;8.120;2023-07-24T10:12:04;4.60;;;2.97;;
19043;SDS011;9654;52.302;8.120;2023-07-24T10:14:32;3.57;;;3.27;;
19043;SDS011;9654;52.302;8.120;2023-07-24T10:17:02;3.97;;;3.67;;
19043;SDS011;9654;52.302;8.120;2023-07-24T10:19:35;3.70;;;3.40;;
19043;SDS011;9654;52.302;8.120;2023-07-24T10:22:03;3.70;;;3.40;;
19043;SDS011;9654;52.302;8.120;2023-07-24T10:24:29;6.07;;;3.63;;
19043;SDS011;9654;52.302;8.120;2023-07-24T10:26:56;5.20;;;3.57;;
19043;SDS011;9654;52.302;8.120;2023-07-24T10:29:23;4.50;;;4.00;;
19043;SDS011;9654;52.302;8.120;2023-07-24T10:31:53;6.47;;;3.50;;
19043;SDS011;9654;52.302;8.120;2023-07-24T10:34:22;4.00;;;3.63;;
19043;SDS011;9654;52.302;8.120;2023-07-24T10:36:49;5.77;;;3.80;;
19043;SDS011;9654;52.302;8.120;2023-07-24T10:39:16;5.30;;;3.57;;
19043;SDS011;9654;52.302;8.120;2023-07-24T10:41:45;4.83;;;3.90;;
19043;SDS011;9654;52.302;8.120;2023-07-24T10:44:12;5.17;;;3.90;;
19043;SDS011;9654;52.302;8.120;2023-07-24T10:46:39;6.33;;;3.17;;
19043;SDS011;9654;52.302;8.120;2023-07-24T10:49:07;6.27;;;3.53;;
19043;SDS011;9654;52.302;8.120;2023-07-24T10:51:37;4.20;;;3.60;;
19043;SDS011;9654;52.302;8.120;2023-07-24T10:54:04;3.87;;;3.13;;
19043;SDS011;9654;52.302;8.120;2023-07-24T10:56:31;5.83;;;3.73;;
19043;SDS011;9654;52.302;8.120;2023-07-24T10:59:02;4.87;;;3.33;;
19043;SDS011;9654;52.302;8.120;2023-07-24T11:01:30;3.70;;;2.80;;
19043;SDS011;9654;52.302;8.120;2023-07-24T11:03:58;4.47;;;3.37;;
19043;SDS011;9654;52.302;8.120;2023-07-24T11:06:25;3.47;;;3.10;;
19043;SDS011;9654;52.302;8.120;2023-07-24T11:08:54;4.90;;;3.10;;
19043;SDS011;9654;52.302;8.120;2023-07-24T11:11:27;3.50;;;3.20;;
19043;SDS011;9654;52.302;8.120;2023-07-24T11:13:54;3.50;;;3.20;;
19043;SDS011;9654;52.302;8.120;2023-07-24T11:16:21;3.67;;;2.77;;
19043;SDS011;9654;52.302;8.120;2023-07-24T11:18:49;3.33;;;3.10;;
19043;SDS011;9654;52.302;8.120;2023-07-24T11:21:17;4.10;;;2.83;;
19043;SDS011;9654;52.302;8.120;2023-07-24T11:23:45;3.20;;;2.97;;
19043;SDS011;9654;52.302;8.120;2023-07-24T11:26:14;4.27;;;3.10;;
19043;SDS011;9654;52.302;8.120;2023-07-24T11:28:42;3.67;;;3.40;;
19043;SDS011;9654;52.302;8.120;2023-07-24T11:31:09;3.47;;;3.10;;
19043;SDS011;9654;52.302;8.120;2023-07-24T11:33:36;3.53;;;3.23;;
19043;SDS011;9654;52.302;8.120;2023-07-24T11:36:04;4.17;;;3.73;;
19043;SDS011;9654;52.302;8.120;2023-07-24T11:38:31;5.30;;;3.67;;
19043;SDS011;9654;52.302;8.120;2023-07-24T11:40:57;4.50;;;3.40;;
19043;SDS011;9654;52.302;8.120;2023-07-24T11:43:26;3.97;;;3.33;;
19043;SDS011;9654;52.302;8.120;2023-07-24T11:45:53;4.40;;;4.00;;
19043;SDS011;9654;52.302;8.120;2023-07-24T11:48:20;4.93;;;3.60;;
19043;SDS011;9654;52.302;8.120;2023-07-24T11:50:48;3.63;;;3.33;;
19043;SDS011;9654;52.302;8.120;2023-07-24T11:53:23;4.13;;;3.10;;
19043;SDS011;9654;52.302;8.120;2023-07-24T11:55:51;3.30;;;3.00;;
19043;SDS011;9654;52.302;8.120;2023-07-24T11:58:18;4.35;;;3.20;;
19043;SDS011;9654;52.302;8.120;2023-07-24T12:00:47;7.53;;;4.27;;
19043;SDS011;9654;52.302;8.120;2023-07-24T12:03:19;4.65;;;2.80;;
19043;SDS011;9654;52.302;8.120;2023-07-24T12:05:46;4.18;;;3.17;;
19043;SDS011;9654;52.302;8.120;2023-07-24T12:08:13;3.33;;;3.13;;
19043;SDS011;9654;52.302;8.120;2023-07-24T12:10:42;4.10;;;3.70;;
19043;SDS011;9654;52.302;8.120;2023-07-24T12:13:09;3.75;;;3.00;;
19043;SDS011;9654;52.302;8.120;2023-07-24T12:15:36;4.23;;;3.07;;
19043;SDS011;9654;52.302;8.120;2023-07-24T12:18:05;3.80;;;3.50;;
19043;SDS011;9654;52.302;8.120;2023-07-24T12:20:32;3.80;;;3.50;;
19043;SDS011;9654;52.302;8.120;2023-07-24T12:23:00;3.87;;;3.00;;
19043;SDS011;9654;52.302;8.120;2023-07-24T12:25:26;5.03;;;3.47;;
19043;SDS011;9654;52.302;8.120;2023-07-24T12:27:53;3.90;;;3.57;;
19043;SDS011;9654;52.302;8.120;2023-07-24T12:30:20;3.90;;;3.40;;
19043;SDS011;9654;52.302;8.120;2023-07-24T12:32:47;5.63;;;3.60;;
19043;SDS011;9654;52.302;8.120;2023-07-24T12:35:15;4.83;;;3.43;;
19043;SDS011;9654;52.302;8.120;2023-07-24T12:37:42;5.17;;;3.70;;
19043;SDS011;9654;52.302;8.120;2023-07-24T12:40:09;3.83;;;3.53;;
19043;SDS011;9654;52.302;8.120;2023-07-24T12:42:36;4.17;;;3.77;;
19043;SDS011;9654;52.302;8.120;2023-07-24T12:45:03;3.97;;;3.60;;
19043;SDS011;9654;52.302;8.120;2023-07-24T12:47:31;3.90;;;3.20;;
19043;SDS011;9654;52.302;8.120;2023-07-24T12:49:58;4.03;;;3.63;;
19043;SDS011;9654;52.302;8.120;2023-07-24T12:52:28;6.13;;;3.67;;
19043;SDS011;9654;52.302;8.120;2023-07-24T12:54:55;7.30;;;3.60;;
19043;SDS011;9654;52.302;8.120;2023-07-24T12:57:22;3.43;;;3.13;;
19043;SDS011;9654;52.302;8.120;2023-07-24T12:59:48;5.63;;;4.03;;
19043;SDS011;9654;52.302;8.120;2023-07-24T13:02:15;4.53;;;3.37;;
19043;SDS011;9654;52.302;8.120;2023-07-24T13:04:42;4.10;;;3.70;;
19043;SDS011;9654;52.302;8.120;2023-07-24T13:07:09;4.30;;;3.57;;
19043;SDS011;9654;52.302;8.120;2023-07-24T13:09:37;3.73;;;3.43;;
19043;SDS011;9654;52.302;8.120;2023-07-24T13:12:04;3.67;;;3.37;;
19043;SDS011;9654;52.302;8.120;2023-07-24T13:14:32;7.57;;;4.10;;
19043;SDS011;9654;52.302;8.120;2023-07-24T13:16:58;4.30;;;3.30;;
19043;SDS011;9654;52.302;8.120;2023-07-24T13:19:25;4.53;;;4.07;;
19043;SDS011;9654;52.302;8.120;2023-07-24T13:21:52;4.53;;;3.30;;
19043;SDS011;9654;52.302;8.120;2023-07-24T13:24:19;6.30;;;2.83;;
19043;SDS011;9654;52.302;8.120;2023-07-24T13:26:47;3.40;;;3.10;;
19043;SDS011;9654;52.302;8.120;2023-07-24T13:29:14;3.60;;;2.80;;
19043;SDS011;9654;52.302;8.120;2023-07-24T13:31:41;4.50;;;3.50;;
19043;SDS011;9654;52.302;8.120;2023-07-24T13:34:07;3.30;;;2.70;;
19043;SDS011;9654;52.302;8.120;2023-07-24T13:36:34;3.40;;;3.10;;
19043;SDS011;9654;52.302;8.120;2023-07-24T13:39:01;3.23;;;2.93;;
19043;SDS011;9654;52.302;8.120;2023-07-24T13:41:28;4.13;;;2.97;;
19043;SDS011;9654;52.302;8.120;2023-07-24T13:43:56;3.13;;;2.90;;
19043;SDS011;9654;52.302;8.120;2023-07-24T13:46:23;3.20;;;3.00;;
19043;SDS011;9654;52.302;8.120;2023-07-24T13:48:50;3.47;;;3.20;;
19043;SDS011;9654;52.302;8.120;2023-07-24T13:51:16;4.47;;;3.87;;
19043;SDS011;9654;52.302;8.120;2023-07-24T13:53:43;4.13;;;3.73;;
19043;SDS011;9654;52.302;8.120;2023-07-24T13:56:12;5.87;;;4.07;;
19043;SDS011;9654;52.302;8.120;2023-07-24T13:58:39;3.73;;;2.97;;
19043;SDS011;9654;52.302;8.120;2023-07-24T14:01:07;4.00;;;3.60;;
19043;SDS011;9654;52.302;8.120;2023-07-24T14:03:33;4.23;;;3.83;;
19043;SDS011;9654;52.302;8.120;2023-07-24T14:06:00;4.40;;;4.00;;
19043;SDS011;9654;52.302;8.120;2023-07-24T14:08:27;4.03;;;3.73;;
19043;SDS011;9654;52.302;8.120;2023-07-24T14:10:54;4.47;;;3.53;;
19043;SDS011;9654;52.302;8.120;2023-07-24T14:13:21;4.20;;;3.80;;
19043;SDS011;9654;52.302;8.120;2023-07-24T14:15:47;3.90;;;3.60;;
19043;SDS011;9654;52.302;8.120;2023-07-24T14:18:16;4.00;;;3.70;;
19043;SDS011;9654;52.302;8.120;2023-07-24T14:20:42;3.93;;;3.53;;
19043;SDS011;9654;52.302;8.120;2023-07-24T14:23:09;3.47;;;3.17;;
19043;SDS011;9654;52.302;8.120;2023-07-24T14:25:36;4.77;;;3.40;;
19043;SDS011;9654;52.302;8.120;2023-07-24T14:28:03;3.17;;;2.83;;
19043;SDS011;9654;52.302;8.120;2023-07-24T14:30:30;2.83;;;2.63;;
19043;SDS011;9654;52.302;8.120;2023-07-24T14:32:57;2.60;;;2.40;;
19043;SDS011;9654;52.302;8.120;2023-07-24T14:35:25;2.33;;;2.13;;
19043;SDS011;9654;52.302;8.120;2023-07-24T14:37:51;2.50;;;2.40;;
19043;SDS011;9654;52.302;8.120;2023-07-24T14:40:18;2.63;;;2.43;;
19043;SDS011;9654;52.302;8.120;2023-07-24T14:42:45;3.00;;;2.80;;
19043;SDS011;9654;52.302;8.120;2023-07-24T14:45:12;5.33;;;2.50;;
19043;SDS011;9654;52.302;8.120;2023-07-24T14:47:38;3.83;;;3.53;;
19043;SDS011;9654;52.302;8.120;2023-07-24T14:50:06;3.20;;;3.00;;
19043;SDS011;9654;52.302;8.120;2023-07-24T14:52:34;3.40;;;3.10;;
19043;SDS011;9654;52.302;8.120;2023-07-24T14:55:01;3.80;;;3.07;;
19043;SDS011;9654;52.302;8.120;2023-07-24T14:57:30;3.20;;;2.90;;
19043;SDS011;9654;52.302;8.120;2023-07-24T14:59:57;3.10;;;2.80;;